createdAt,value
2022-09-11T00:02:48.287Z,12.10
2022-09-11T00:09:28.325Z,13.50
2022-09-11T00:12:20.292Z,10.80
2022-09-11T00:15:19.557Z,11.40
2022-09-11T00:17:50.841Z,9.10
2022-09-11T00:20:21.035Z,12.10
2022-09-11T00:26:36.488Z,13.20
2022-09-11T00:34:05.187Z,14.20
2022-09-11T00:37:05.727Z,13.70
2022-09-11T00:39:37.864Z,13.90
2022-09-11T00:42:11.753Z,12.40
2022-09-11T00:45:19.394Z,14.40
2022-09-11T00:48:03.481Z,15.70
2022-09-11T00:51:04.909Z,14.90
2022-09-11T00:58:04.517Z,11.90
2022-09-11T01:01:16.568Z,15.10
2022-09-11T01:04:12.570Z,14.40
2022-09-11T01:10:50.561Z,14.90
2022-09-11T01:18:03.283Z,15.20
2022-09-11T01:21:48.513Z,14.90
2022-09-11T01:24:39.228Z,13.10
2022-09-11T01:27:53.854Z,16.40
2022-09-11T01:31:19.384Z,15.60
2022-09-11T01:34:10.782Z,15.10
2022-09-11T01:36:53.395Z,14.00
2022-09-11T01:39:30.296Z,14.30
2022-09-11T01:42:06.007Z,13.40
2022-09-11T01:44:50.591Z,14.20
2022-09-11T01:47:32.406Z,14.70
2022-09-11T01:50:09.130Z,14.90
2022-09-11T01:56:38.054Z,14.10
2022-09-11T02:02:31.082Z,13.00
2022-09-11T02:05:06.423Z,13.50
2022-09-11T02:07:40.175Z,13.30
2022-09-11T02:10:15.052Z,13.70
2022-09-11T02:12:49.743Z,14.40
2022-09-11T02:15:19.419Z,14.00
2022-09-11T02:17:54.380Z,11.10
2022-09-11T02:20:26.115Z,13.20
2022-09-11T02:22:56.234Z,14.40
2022-09-11T02:25:25.722Z,13.50
2022-09-11T02:27:55.124Z,13.60
2022-09-11T02:30:24.201Z,13.60
2022-09-11T02:32:56.664Z,13.20
2022-09-11T02:35:40.149Z,12.30
2022-09-11T02:38:21.349Z,10.90
2022-09-11T02:41:08.739Z,11.80
2022-09-11T02:43:58.247Z,11.90
2022-09-11T02:46:59.346Z,13.10
2022-09-11T02:49:44.463Z,11.40
2022-09-11T02:52:29.001Z,11.10
2022-09-11T02:55:06.919Z,10.50
2022-09-11T02:57:42.025Z,10.20
2022-09-11T03:00:13.419Z,10.30
2022-09-11T03:02:44.980Z,10.40
2022-09-11T03:05:15.728Z,10.10
2022-09-11T03:07:45.069Z,10.10
2022-09-11T03:10:14.969Z,9.60
2022-09-11T03:12:48.636Z,9.80
2022-09-11T03:15:21.969Z,9.00
2022-09-11T03:17:58.206Z,7.50
2022-09-11T03:20:27.569Z,8.70
2022-09-11T03:22:57.843Z,8.90
2022-09-11T03:25:27.792Z,9.10
2022-09-11T03:27:58.835Z,8.80
2022-09-11T03:30:28.860Z,8.80
2022-09-11T03:33:00.222Z,9.40
2022-09-11T03:35:31.155Z,8.10
2022-09-11T03:38:00.367Z,7.70
2022-09-11T03:40:29.357Z,8.70
2022-09-11T03:42:59.148Z,9.30
2022-09-11T03:45:28.592Z,9.30
2022-09-11T03:47:58.130Z,8.80
2022-09-11T03:50:27.508Z,8.80
2022-09-11T03:52:58.074Z,8.70
2022-09-11T03:55:28.207Z,8.40
2022-09-11T03:57:58.671Z,6.60
2022-09-11T04:00:28.370Z,6.60
2022-09-11T04:02:57.608Z,7.70
2022-09-11T04:05:27.372Z,8.60
2022-09-11T04:07:56.831Z,8.10
2022-09-11T04:11:08.681Z,8.20
2022-09-11T04:13:55.161Z,9.00
2022-09-11T04:16:55.716Z,9.20
2022-09-11T04:19:35.787Z,9.00
2022-09-11T04:22:05.237Z,8.60
2022-09-11T04:24:34.648Z,8.50
2022-09-11T04:27:05.145Z,7.90
2022-09-11T04:29:35.433Z,7.40
2022-09-11T04:32:05.734Z,8.90
2022-09-11T04:34:34.771Z,8.30
2022-09-11T04:37:05.774Z,8.40
2022-09-11T04:39:35.689Z,7.00
2022-09-11T04:42:05.997Z,7.30
2022-09-11T04:44:35.672Z,7.30
2022-09-11T04:47:05.229Z,7.30
2022-09-11T04:49:34.787Z,7.00
2022-09-11T04:52:05.701Z,7.50
2022-09-11T04:54:36.445Z,8.30
2022-09-11T04:57:06.119Z,6.50
2022-09-11T04:59:36.063Z,7.50
